sensor_id;sensor_type;location;lat;lon;timestamp;pressure;altitude;pressure_sealevel;temperature;humidity
36630;BME280;36256;42.154;23.002;2023-06-04T00:01:10;97298.69;;;17.40;100.00
36630;BME280;36256;42.154;23.002;2023-06-04T00:03:42;97302.06;;;17.44;100.00
36630;BME280;36256;42.154;23.002;2023-06-04T00:06:10;97309.56;;;17.47;100.00
36630;BME280;36256;42.154;23.002;2023-06-04T00:08:36;97306.31;;;17.54;100.00
36630;BME280;36256;42.154;23.002;2023-06-04T00:11:03;97311.72;;;17.52;100.00
36630;BME280;36256;42.154;23.002;2023-06-04T00:13:30;97309.16;;;17.54;100.00
36630;BME280;36256;42.154;23.002;2023-06-04T00:15:57;97302.94;;;17.50;100.00
36630;BME280;36256;42.154;23.002;2023-06-04T00:18:24;97298.44;;;17.43;100.00
36630;BME280;36256;42.154;23.002;2023-06-04T00:20:51;97302.06;;;17.44;100.00
36630;BME280;36256;42.154;23.002;2023-06-04T00:23:17;97255.06;;;17.11;100.00
36630;BME280;36256;42.154;23.002;2023-06-04T00:25:45;97293.66;;;17.29;100.00
36630;BME280;36256;42.154;23.002;2023-06-04T00:28:11;97302.22;;;17.35;100.00
36630;BME280;36256;42.154;23.002;2023-06-04T00:30:38;97299.63;;;17.31;100.00
36630;BME280;36256;42.154;23.002;2023-06-04T00:33:05;97299.53;;;17.25;100.00
36630;BME280;36256;42.154;23.002;2023-06-04T00:35:32;97297.44;;;17.20;100.00
36630;BME280;36256;42.154;23.002;2023-06-04T00:37:59;97308.22;;;17.16;100.00
36630;BME280;36256;42.154;23.002;2023-06-04T00:40:26;97297.88;;;17.13;100.00
36630;BME280;36256;42.154;23.002;2023-06-04T00:42:52;97300.19;;;17.15;100.00
36630;BME280;36256;42.154;23.002;2023-06-04T00:45:22;97300.78;;;17.19;100.00
36630;BME280;36256;42.154;23.002;2023-06-04T00:47:52;97266.72;;;16.93;100.00
36630;BME280;36256;42.154;23.002;2023-06-04T00:50:19;97275.91;;;17.08;100.00
36630;BME280;36256;42.154;23.002;2023-06-04T00:52:49;97303.66;;;17.24;100.00
36630;BME280;36256;42.154;23.002;2023-06-04T00:55:16;97293.03;;;17.19;100.00
36630;BME280;36256;42.154;23.002;2023-06-04T00:57:45;97291.50;;;17.18;100.00
36630;BME280;36256;42.154;23.002;2023-06-04T01:00:12;97301.75;;;17.16;100.00
36630;BME280;36256;42.154;23.002;2023-06-04T01:02:41;97307.09;;;17.08;100.00
36630;BME280;36256;42.154;23.002;2023-06-04T01:05:29;97300.66;;;17.08;100.00
36630;BME280;36256;42.154;23.002;2023-06-04T01:08:00;97296.97;;;17.02;100.00
36630;BME280;36256;42.154;23.002;2023-06-04T01:10:27;97297.16;;;16.98;100.00
36630;BME280;36256;42.154;23.002;2023-06-04T01:12:54;97303.56;;;16.93;100.00
36630;BME280;36256;42.154;23.002;2023-06-04T01:15:21;97306.41;;;16.93;100.00
36630;BME280;36256;42.154;23.002;2023-06-04T01:17:53;97304.59;;;16.96;100.00
36630;BME280;36256;42.154;23.002;2023-06-04T01:20:39;97306.81;;;16.86;100.00
36630;BME280;36256;42.154;23.002;2023-06-04T01:23:26;97298.81;;;16.85;100.00
36630;BME280;36256;42.154;23.002;2023-06-04T01:26:04;97294.34;;;16.78;100.00
36630;BME280;36256;42.154;23.002;2023-06-04T01:28:33;97297.47;;;16.80;100.00
36630;BME280;36256;42.154;23.002;2023-06-04T01:31:02;97299.00;;;16.81;100.00
36630;BME280;36256;42.154;23.002;2023-06-04T01:33:30;97298.66;;;16.74;100.00
36630;BME280;36256;42.154;23.002;2023-06-04T01:35:58;97297.09;;;16.73;100.00
36630;BME280;36256;42.154;23.002;2023-06-04T01:38:24;97295.59;;;16.77;100.00
36630;BME280;36256;42.154;23.002;2023-06-04T01:40:51;97296.53;;;16.69;100.00
36630;BME280;36256;42.154;23.002;2023-06-04T01:43:22;97292.44;;;16.70;100.00
36630;BME280;36256;42.154;23.002;2023-06-04T01:45:49;97307.09;;;16.68;100.00
36630;BME280;36256;42.154;23.002;2023-06-04T01:48:16;97305.53;;;16.67;100.00
36630;BME280;36256;42.154;23.002;2023-06-04T01:50:43;97308.63;;;16.69;100.00
36630;BME280;36256;42.154;23.002;2023-06-04T01:53:10;97297.25;;;16.64;100.00
36630;BME280;36256;42.154;23.002;2023-06-04T01:55:36;97301.44;;;16.68;100.00
36630;BME280;36256;42.154;23.002;2023-06-04T01:58:04;97306.53;;;16.64;100.00
36630;BME280;36256;42.154;23.002;2023-06-04T02:00:31;97306.53;;;16.64;100.00
36630;BME280;36256;42.154;23.002;2023-06-04T02:02:58;97309.06;;;16.62;100.00
36630;BME280;36256;42.154;23.002;2023-06-04T02:05:26;97307.22;;;16.59;100.00
36630;BME280;36256;42.154;23.002;2023-06-04T02:07:53;97319.06;;;16.58;100.00
36630;BME280;36256;42.154;23.002;2023-06-04T02:10:20;97316.00;;;16.61;100.00
36630;BME280;36256;42.154;23.002;2023-06-04T02:13:01;97318.84;;;16.61;100.00
36630;BME280;36256;42.154;23.002;2023-06-04T02:15:31;97323.38;;;16.53;100.00
36630;BME280;36256;42.154;23.002;2023-06-04T02:18:00;97327.44;;;16.52;100.00
36630;BME280;36256;42.154;23.002;2023-06-04T02:20:39;97325.69;;;16.55;100.00
36630;BME280;36256;42.154;23.002;2023-06-04T02:23:06;97331.84;;;16.53;100.00
36630;BME280;36256;42.154;23.002;2023-06-04T02:25:32;97333.69;;;16.56;100.00
36630;BME280;36256;42.154;23.002;2023-06-04T02:27:59;97335.25;;;16.57;100.00
36630;BME280;36256;42.154;23.002;2023-06-04T02:30:26;97332.16;;;16.55;100.00
36630;BME280;36256;42.154;23.002;2023-06-04T02:32:53;97344.03;;;16.59;100.00
36630;BME280;36256;42.154;23.002;2023-06-04T02:35:21;97340.53;;;16.64;100.00
36630;BME280;36256;42.154;23.002;2023-06-04T02:37:49;97342.06;;;16.65;100.00
36630;BME280;36256;42.154;23.002;2023-06-04T02:40:17;97335.94;;;16.52;100.00
36630;BME280;36256;42.154;23.002;2023-06-04T02:42:44;97349.72;;;16.59;100.00
36630;BME280;36256;42.154;23.002;2023-06-04T02:45:11;97356.94;;;16.60;100.00
36630;BME280;36256;42.154;23.002;2023-06-04T02:47:38;97356.94;;;16.60;100.00
36630;BME280;36256;42.154;23.002;2023-06-04T02:50:05;97358.50;;;16.61;100.00
36630;BME280;36256;42.154;23.002;2023-06-04T02:52:32;97346.59;;;16.57;100.00
36630;BME280;36256;42.154;23.002;2023-06-04T02:54:59;97355.09;;;16.57;100.00
36630;BME280;36256;42.154;23.002;2023-06-04T02:57:26;97360.03;;;16.62;100.00
36630;BME280;36256;42.154;23.002;2023-06-04T02:59:53;97367.13;;;16.52;100.00
36630;BME280;36256;42.154;23.002;2023-06-04T03:02:22;97374.34;;;16.53;100.00
36630;BME280;36256;42.154;23.002;2023-06-04T03:04:48;97372.59;;;16.56;100.00
36630;BME280;36256;42.154;23.002;2023-06-04T03:07:18;97361.16;;;16.50;100.00
36630;BME280;36256;42.154;23.002;2023-06-04T03:09:49;97376.19;;;16.56;100.00
36630;BME280;36256;42.154;23.002;2023-06-04T03:12:16;97371.38;;;16.62;100.00
36630;BME280;36256;42.154;23.002;2023-06-04T03:14:43;97385.06;;;16.64;100.00
36630;BME280;36256;42.154;23.002;2023-06-04T03:17:10;97379.59;;;16.60;100.00
36630;BME280;36256;42.154;23.002;2023-06-04T03:19:38;97377.66;;;16.66;100.00
36630;BME280;36256;42.154;23.002;2023-06-04T03:22:05;97376.63;;;16.69;100.00
36630;BME280;36256;42.154;23.002;2023-06-04T03:24:36;97376.25;;;16.76;100.00
36630;BME280;36256;42.154;23.002;2023-06-04T03:27:04;97370.13;;;16.83;100.00
36630;BME280;36256;42.154;23.002;2023-06-04T03:29:31;97358.22;;;16.79;100.00
36630;BME280;36256;42.154;23.002;2023-06-04T03:31:59;97375.78;;;16.98;100.00
36630;BME280;36256;42.154;23.002;2023-06-04T03:34:26;97368.19;;;16.89;100.00
36630;BME280;36256;42.154;23.002;2023-06-04T03:36:54;97379.75;;;17.06;100.00
36630;BME280;36256;42.154;23.002;2023-06-04T03:39:21;97391.38;;;17.08;100.00
36630;BME280;36256;42.154;23.002;2023-06-04T03:41:48;97395.69;;;17.03;100.00
36630;BME280;36256;42.154;23.002;2023-06-04T03:44:16;97392.00;;;16.97;100.00
36630;BME280;36256;42.154;23.002;2023-06-04T03:46:44;97388.88;;;16.95;100.00
36630;BME280;36256;42.154;23.002;2023-06-04T03:49:13;97389.72;;;17.01;100.00
36630;BME280;36256;42.154;23.002;2023-06-04T03:51:41;97394.19;;;17.08;100.00
36630;BME280;36256;42.154;23.002;2023-06-04T03:54:08;97392.16;;;17.08;100.00
36630;BME280;36256;42.154;23.002;2023-06-04T03:56:34;97392.16;;;17.08;100.00
36630;BME280;36256;42.154;23.002;2023-06-04T03:59:01;97406.81;;;17.07;100.00
36630;BME280;36256;42.154;23.002;2023-06-04T04:01:28;97402.47;;;17.11;100.00
36630;BME280;36256;42.154;23.002;2023-06-04T04:03:55;97398.56;;;17.09;100.00
36630;BME280;36256;42.154;23.002;2023-06-04T04:06:22;97405.81;;;17.10;100.00
36630;BME280;36256;42.154;23.002;2023-06-04T04:08:48;97405.25;;;17.06;100.00
36630;BME280;36256;42.154;23.002;2023-06-04T04:11:16;97418.38;;;17.03;100.00
36630;BME280;36256;42.154;23.002;2023-06-04T04:13:44;97417.34;;;17.06;100.00
36630;BME280;36256;42.154;23.002;2023-06-04T04:16:12;97416.78;;;17.02;100.00
36630;BME280;36256;42.154;23.002;2023-06-04T04:18:41;97410.84;;;17.00;100.00
36630;BME280;36256;42.154;23.002;2023-06-04T04:21:10;97414.03;;;17.08;100.00
36630;BME280;36256;42.154;23.002;2023-06-04T04:23:40;97422.63;;;17.13;100.00
36630;BME280;36256;42.154;23.002;2023-06-04T04:26:08;97426.75;;;17.12;100.00
36630;BME280;36256;42.154;23.002;2023-06-04T04:28:35;97426.19;;;17.08;100.00
36630;BME280;36256;42.154;23.002;2023-06-04T04:31:02;97429.56;;;17.12;100.00
36630;BME280;36256;42.154;23.002;2023-06-04T04:33:29;97423.34;;;17.08;100.00
36630;BME280;36256;42.154;23.002;2023-06-04T04:35:59;97403.44;;;16.88;100.00
36630;BME280;36256;42.154;23.002;2023-06-04T04:38:26;97427.16;;;17.05;100.00
36630;BME280;36256;42.154;23.002;2023-06-04T04:40:55;97431.53;;;17.06;100.00
36630;BME280;36256;42.154;23.002;2023-06-04T04:43:29;97425.44;;;17.13;100.00
36630;BME280;36256;42.154;23.002;2023-06-04T04:45:56;97428.28;;;17.13;100.00
36630;BME280;36256;42.154;23.002;2023-06-04T04:48:24;97424.38;;;17.11;100.00
36630;BME280;36256;42.154;23.002;2023-06-04T04:50:52;97428.84;;;17.17;100.00
36630;BME280;36256;42.154;23.002;2023-06-04T04:53:19;97431.78;;;17.23;100.00
36630;BME280;36256;42.154;23.002;2023-06-04T04:55:45;97431.22;;;17.19;100.00
36630;BME280;36256;42.154;23.002;2023-06-04T04:58:13;97432.63;;;17.29;100.00
36630;BME280;36256;42.154;23.002;2023-06-04T05:00:39;97428.22;;;17.28;100.00
36630;BME280;36256;42.154;23.002;2023-06-04T05:03:06;97430.13;;;17.37;100.00
36630;BME280;36256;42.154;23.002;2023-06-04T05:05:33;97429.44;;;17.42;100.00
36630;BME280;36256;42.154;23.002;2023-06-04T05:08:00;97436.75;;;17.48;100.00
36630;BME280;36256;42.154;23.002;2023-06-04T05:10:26;97436.03;;;17.33;100.00
36630;BME280;36256;42.154;23.002;2023-06-04T05:12:57;97441.84;;;17.24;100.00
36630;BME280;36256;42.154;23.002;2023-06-04T05:15:25;97443.75;;;17.33;100.00
36630;BME280;36256;42.154;23.002;2023-06-04T05:17:53;97431.91;;;17.34;100.00
36630;BME280;36256;42.154;23.002;2023-06-04T05:20:20;97444.97;;;17.46;100.00
36630;BME280;36256;42.154;23.002;2023-06-04T05:22:48;97442.00;;;17.55;100.00
36630;BME280;36256;42.154;23.002;2023-06-04T05:25:16;97439.81;;;17.65;100.00
36630;BME280;36256;42.154;23.002;2023-06-04T05:27:43;97449.59;;;17.64;100.00
36630;BME280;36256;42.154;23.002;2023-06-04T05:30:10;97450.44;;;17.70;100.00
36630;BME280;36256;42.154;23.002;2023-06-04T05:32:37;97450.28;;;17.79;100.00
36630;BME280;36256;42.154;23.002;2023-06-04T05:35:08;97455.25;;;17.84;100.00
36630;BME280;36256;42.154;23.002;2023-06-04T05:37:36;97452.97;;;17.88;100.00
36630;BME280;36256;42.154;23.002;2023-06-04T05:40:05;97457.66;;;17.91;100.00
36630;BME280;36256;42.154;23.002;2023-06-04T05:42:32;97464.47;;;17.99;100.00
36630;BME280;36256;42.154;23.002;2023-06-04T05:44:59;97419.66;;;17.63;100.00
36630;BME280;36256;42.154;23.002;2023-06-04T05:47:27;97469.66;;;17.80;100.00
36630;BME280;36256;42.154;23.002;2023-06-04T05:49:56;97478.16;;;17.80;100.00
36630;BME280;36256;42.154;23.002;2023-06-04T05:52:23;97471.78;;;17.85;100.00
36630;BME280;36256;42.154;23.002;2023-06-04T05:54:50;97488.16;;;17.96;100.00
36630;BME280;36256;42.154;23.002;2023-06-04T05:57:18;97487.28;;;18.10;100.00
36630;BME280;36256;42.154;23.002;2023-06-04T05:59:45;97490.41;;;18.12;100.00
36630;BME280;36256;42.154;23.002;2023-06-04T06:02:12;97481.88;;;18.12;100.00
36630;BME280;36256;42.154;23.002;2023-06-04T06:04:39;97493.75;;;18.11;100.00
36630;BME280;36256;42.154;23.002;2023-06-04T06:07:06;97493.88;;;18.22;100.00
36630;BME280;36256;42.154;23.002;2023-06-04T06:09:33;97486.63;;;18.21;100.00
36630;BME280;36256;42.154;23.002;2023-06-04T06:12:00;97504.41;;;18.41;100.00
36630;BME280;36256;42.154;23.002;2023-06-04T06:14:27;97510.22;;;18.52;100.00
36630;BME280;36256;42.154;23.002;2023-06-04T06:16:54;97510.75;;;18.56;100.00
36630;BME280;36256;42.154;23.002;2023-06-04T06:19:21;97513.69;;;18.62;100.00
36630;BME280;36256;42.154;23.002;2023-06-04T06:21:48;97516.56;;;18.67;100.00
36630;BME280;36256;42.154;23.002;2023-06-04T06:24:15;97515.56;;;18.70;100.00
36630;BME280;36256;42.154;23.002;2023-06-04T06:26:41;97511.44;;;18.71;100.00
36630;BME280;36256;42.154;23.002;2023-06-04T06:29:09;97506.22;;;18.64;100.00
36630;BME280;36256;42.154;23.002;2023-06-04T06:31:35;97507.31;;;18.72;100.00
36630;BME280;36256;42.154;23.002;2023-06-04T06:34:03;97504.03;;;18.79;100.00
36630;BME280;36256;42.154;23.002;2023-06-04T06:36:29;97515.16;;;18.83;100.00
36630;BME280;36256;42.154;23.002;2023-06-04T06:38:56;97515.16;;;18.83;100.00
36630;BME280;36256;42.154;23.002;2023-06-04T06:41:23;97514.91;;;18.87;100.00
36630;BME280;36256;42.154;23.002;2023-06-04T06:43:50;97519.88;;;18.92;100.00
36630;BME280;36256;42.154;23.002;2023-06-04T06:46:17;97518.59;;;18.93;100.00
36630;BME280;36256;42.154;23.002;2023-06-04T06:48:44;97520.69;;;18.98;100.00
36630;BME280;36256;42.154;23.002;2023-06-04T06:51:12;97531.84;;;19.01;100.00
36630;BME280;36256;42.154;23.002;2023-06-04T06:53:38;97522.25;;;18.99;100.00
36630;BME280;36256;42.154;23.002;2023-06-04T06:56:06;97527.22;;;19.04;100.00
36630;BME280;36256;42.154;23.002;2023-06-04T06:58:33;97538.34;;;19.07;100.00
36630;BME280;36256;42.154;23.002;2023-06-04T07:01:00;97538.69;;;19.15;100.00
36630;BME280;36256;42.154;23.002;2023-06-04T07:03:27;97536.38;;;19.19;100.00
36630;BME280;36256;42.154;23.002;2023-06-04T07:05:53;97538.63;;;19.09;100.00
36630;BME280;36256;42.154;23.002;2023-06-04T07:08:20;97541.97;;;19.08;100.00
36630;BME280;36256;42.154;23.002;2023-06-04T07:10:48;97538.69;;;19.15;100.00
36630;BME280;36256;42.154;23.002;2023-06-04T07:13:14;97547.47;;;19.17;100.00
36630;BME280;36256;42.154;23.002;2023-06-04T07:15:41;97550.59;;;19.19;100.00
36630;BME280;36256;42.154;23.002;2023-06-04T07:18:08;97552.16;;;19.20;100.00
36630;BME280;36256;42.154;23.002;2023-06-04T07:20:35;97557.34;;;19.21;100.00
36630;BME280;36256;42.154;23.002;2023-06-04T07:23:02;97559.22;;;19.30;100.00
36630;BME280;36256;42.154;23.002;2023-06-04T07:25:29;97554.09;;;19.34;100.00
36630;BME280;36256;42.154;23.002;2023-06-04T07:27:55;97562.72;;;19.45;100.00
36630;BME280;36256;42.154;23.002;2023-06-04T07:30:25;97560.44;;;19.49;100.00
36630;BME280;36256;42.154;23.002;2023-06-04T07:32:52;97566.88;;;19.49;100.00
36630;BME280;36256;42.154;23.002;2023-06-04T07:35:19;97563.53;;;19.51;100.00
36630;BME280;36256;42.154;23.002;2023-06-04T07:37:46;97567.94;;;19.52;100.00
36630;BME280;36256;42.154;23.002;2023-06-04T07:40:16;97564.66;;;19.65;100.00
36630;BME280;36256;42.154;23.002;2023-06-04T07:42:44;97561.50;;;19.57;100.00
36630;BME280;36256;42.154;23.002;2023-06-04T07:45:11;97568.47;;;19.56;100.00
36630;BME280;36256;42.154;23.002;2023-06-04T07:47:38;97561.25;;;19.61;100.00
36630;BME280;36256;42.154;23.002;2023-06-04T07:50:05;97569.84;;;19.66;100.00
36630;BME280;36256;42.154;23.002;2023-06-04T07:52:32;97564.16;;;19.66;100.00
36630;BME280;36256;42.154;23.002;2023-06-04T07:54:59;97565.72;;;19.73;100.00
36630;BME280;36256;42.154;23.002;2023-06-04T07:57:27;97575.84;;;19.79;100.00
36630;BME280;36256;42.154;23.002;2023-06-04T07:59:53;97580.00;;;19.78;100.00
36630;BME280;36256;42.154;23.002;2023-06-04T08:02:20;97579.50;;;19.85;100.00
36630;BME280;36256;42.154;23.002;2023-06-04T08:04:47;97576.97;;;19.87;100.00
36630;BME280;36256;42.154;23.002;2023-06-04T08:07:14;97584.41;;;19.79;100.00
36630;BME280;36256;42.154;23.002;2023-06-04T08:09:41;97572.47;;;19.75;100.00
36630;BME280;36256;42.154;23.002;2023-06-04T08:12:10;97576.97;;;19.87;100.00
36630;BME280;36256;42.154;23.002;2023-06-04T08:14:37;97578.25;;;19.92;100.00
36630;BME280;36256;42.154;23.002;2023-06-04T08:17:04;97582.97;;;20.00;100.00
36630;BME280;36256;42.154;23.002;2023-06-04T08:19:30;97573.66;;;20.05;100.00
36630;BME280;36256;42.154;23.002;2023-06-04T08:21:57;97577.94;;;20.26;100.00
36630;BME280;36256;42.154;23.002;2023-06-04T08:24:24;97591.50;;;20.54;100.00
36630;BME280;36256;42.154;23.002;2023-06-04T08:26:50;97587.13;;;20.69;100.00
36630;BME280;36256;42.154;23.002;2023-06-04T08:29:18;97582.22;;;20.81;100.00
36630;BME280;36256;42.154;23.002;2023-06-04T08:31:45;97585.31;;;20.83;100.00
36630;BME280;36256;42.154;23.002;2023-06-04T08:34:12;97577.03;;;20.74;100.00
36630;BME280;36256;42.154;23.002;2023-06-04T08:36:39;97586.38;;;20.91;100.00
36630;BME280;36256;42.154;23.002;2023-06-04T08:39:06;97580.44;;;20.94;100.00
36630;BME280;36256;42.154;23.002;2023-06-04T08:41:43;97586.38;;;20.91;100.00
36630;BME280;36256;42.154;23.002;2023-06-04T08:44:11;97583.59;;;21.07;100.00
36630;BME280;36256;42.154;23.002;2023-06-04T08:46:39;97563.88;;;21.09;99.15
36630;BME280;36256;42.154;23.002;2023-06-04T08:49:14;97583.34;;;21.22;100.00
36630;BME280;36256;42.154;23.002;2023-06-04T08:51:42;97576.06;;;21.43;96.70
36630;BME280;36256;42.154;23.002;2023-06-04T08:54:09;97575.25;;;21.54;96.29
36630;BME280;36256;42.154;23.002;2023-06-04T08:56:36;97568.50;;;21.51;96.00
36630;BME280;36256;42.154;23.002;2023-06-04T08:59:06;97575.75;;;21.74;96.52
36630;BME280;36256;42.154;23.002;2023-06-04T09:01:35;97567.66;;;21.95;98.19
36630;BME280;36256;42.154;23.002;2023-06-04T09:04:05;97566.50;;;22.26;96.59
36630;BME280;36256;42.154;23.002;2023-06-04T09:06:36;97571.66;;;22.33;91.37
36630;BME280;36256;42.154;23.002;2023-06-04T09:09:05;97577.91;;;22.31;90.19
36630;BME280;36256;42.154;23.002;2023-06-04T09:11:41;97568.94;;;22.68;90.30
36630;BME280;36256;42.154;23.002;2023-06-04T09:14:14;97577.53;;;23.03;90.24
36630;BME280;36256;42.154;23.002;2023-06-04T09:16:47;97574.09;;;23.10;93.56
36630;BME280;36256;42.154;23.002;2023-06-04T09:19:17;97569.09;;;23.16;90.21
36630;BME280;36256;42.154;23.002;2023-06-04T09:21:54;97568.44;;;23.34;95.56
36630;BME280;36256;42.154;23.002;2023-06-04T09:24:23;97564.53;;;23.62;90.15
36630;BME280;36256;42.154;23.002;2023-06-04T09:26:50;97563.97;;;23.69;80.29
36630;BME280;36256;42.154;23.002;2023-06-04T09:29:17;97564.81;;;23.88;81.38
36630;BME280;36256;42.154;23.002;2023-06-04T09:31:57;97564.34;;;24.08;78.21
36630;BME280;36256;42.154;23.002;2023-06-04T09:34:30;97558.28;;;23.87;78.14
36630;BME280;36256;42.154;23.002;2023-06-04T09:36:58;97560.50;;;24.00;75.26
36630;BME280;36256;42.154;23.002;2023-06-04T09:39:25;97553.22;;;23.99;77.35
36630;BME280;36256;42.154;23.002;2023-06-04T09:42:01;97552.50;;;24.17;80.25
36630;BME280;36256;42.154;23.002;2023-06-04T09:44:29;97549.59;;;24.41;75.63
36630;BME280;36256;42.154;23.002;2023-06-04T09:46:57;97543.69;;;24.52;71.93
36630;BME280;36256;42.154;23.002;2023-06-04T09:49:24;97538.66;;;24.58;68.02
36630;BME280;36256;42.154;23.002;2023-06-04T09:51:51;97544.09;;;24.80;74.44
36630;BME280;36256;42.154;23.002;2023-06-04T09:54:18;97523.78;;;24.41;63.17
36630;BME280;36256;42.154;23.002;2023-06-04T09:56:45;97528.59;;;24.52;71.51
36630;BME280;36256;42.154;23.002;2023-06-04T09:59:13;97536.41;;;24.88;67.69
36630;BME280;36256;42.154;23.002;2023-06-04T10:01:40;97525.25;;;25.17;67.10
36630;BME280;36256;42.154;23.002;2023-06-04T10:04:11;97522.84;;;25.21;67.33
36630;BME280;36256;42.154;23.002;2023-06-04T10:06:39;97524.09;;;25.25;73.16
36630;BME280;36256;42.154;23.002;2023-06-04T10:09:09;97523.94;;;25.18;65.41
36630;BME280;36256;42.154;23.002;2023-06-04T10:11:47;97512.88;;;25.09;64.06
36630;BME280;36256;42.154;23.002;2023-06-04T10:14:21;97503.47;;;24.76;64.47
36630;BME280;36256;42.154;23.002;2023-06-04T10:16:51;97515.16;;;24.60;63.20
36630;BME280;36256;42.154;23.002;2023-06-04T10:19:18;97515.00;;;24.52;64.31
36630;BME280;36256;42.154;23.002;2023-06-04T10:21:45;97511.75;;;24.61;68.06
36630;BME280;36256;42.154;23.002;2023-06-04T10:24:14;97514.09;;;24.81;65.35
36630;BME280;36256;42.154;23.002;2023-06-04T10:26:42;97502.53;;;24.68;62.26
36630;BME280;36256;42.154;23.002;2023-06-04T10:29:09;97495.88;;;24.60;61.76
36630;BME280;36256;42.154;23.002;2023-06-04T10:31:37;97496.25;;;24.51;62.83
36630;BME280;36256;42.154;23.002;2023-06-04T10:34:04;97502.75;;;24.70;65.78
36630;BME280;36256;42.154;23.002;2023-06-04T10:36:31;97509.56;;;25.05;68.36
36630;BME280;36256;42.154;23.002;2023-06-04T10:38:58;97494.03;;;25.26;61.71
36630;BME280;36256;42.154;23.002;2023-06-04T10:41:25;97498.31;;;25.20;61.23
36630;BME280;36256;42.154;23.002;2023-06-04T10:44:00;97498.97;;;25.13;64.14
36630;BME280;36256;42.154;23.002;2023-06-04T10:46:40;97481.56;;;25.24;58.98
36630;BME280;36256;42.154;23.002;2023-06-04T10:49:09;97479.69;;;25.39;60.80
36630;BME280;36256;42.154;23.002;2023-06-04T10:51:37;97483.88;;;25.25;59.34
36630;BME280;36256;42.154;23.002;2023-06-04T10:54:04;97479.81;;;25.34;59.01
36630;BME280;36256;42.154;23.002;2023-06-04T10:56:32;97482.06;;;25.54;62.98
36630;BME280;36256;42.154;23.002;2023-06-04T10:59:00;97473.00;;;25.63;60.68
36630;BME280;36256;42.154;23.002;2023-06-04T11:01:27;97477.28;;;25.43;58.04
36630;BME280;36256;42.154;23.002;2023-06-04T11:03:59;97482.06;;;25.54;59.71
36630;BME280;36256;42.154;23.002;2023-06-04T11:06:25;97476.44;;;25.61;58.08
36630;BME280;36256;42.154;23.002;2023-06-04T11:09:03;97455.19;;;25.51;56.20
36630;BME280;36256;42.154;23.002;2023-06-04T11:11:32;97459.09;;;25.67;58.39
36630;BME280;36256;42.154;23.002;2023-06-04T11:14:08;97460.63;;;25.68;60.84
36630;BME280;36256;42.154;23.002;2023-06-04T11:16:36;97458.66;;;25.76;58.68
36630;BME280;36256;42.154;23.002;2023-06-04T11:19:03;97454.69;;;25.66;55.23
36630;BME280;36256;42.154;23.002;2023-06-04T11:21:30;97448.25;;;25.47;55.41
36630;BME280;36256;42.154;23.002;2023-06-04T11:24:00;97454.16;;;25.36;57.20
36630;BME280;36256;42.154;23.002;2023-06-04T11:26:31;97454.94;;;25.23;56.50
36630;BME280;36256;42.154;23.002;2023-06-04T11:29:06;97451.31;;;25.36;58.56
36630;BME280;36256;42.154;23.002;2023-06-04T11:31:46;97466.97;;;25.35;57.26
36630;BME280;36256;42.154;23.002;2023-06-04T11:36:50;97484.63;;;24.81;65.52
36630;BME280;36256;42.154;23.002;2023-06-04T11:39:20;97489.88;;;24.40;63.82
36630;BME280;36256;42.154;23.002;2023-06-04T11:41:48;97497.94;;;24.04;67.61
36630;BME280;36256;42.154;23.002;2023-06-04T11:44:19;97501.03;;;24.06;66.61
36630;BME280;36256;42.154;23.002;2023-06-04T11:46:47;97497.94;;;24.04;66.81
36630;BME280;36256;42.154;23.002;2023-06-04T11:49:15;97500.44;;;24.13;65.08
36630;BME280;36256;42.154;23.002;2023-06-04T11:51:48;97483.00;;;24.11;60.10
36630;BME280;36256;42.154;23.002;2023-06-04T11:54:16;97476.25;;;24.08;60.13
36630;BME280;36256;42.154;23.002;2023-06-04T11:56:44;97466.44;;;23.80;60.34
36630;BME280;36256;42.154;23.002;2023-06-04T11:59:15;97483.00;;;23.87;60.25
36630;BME280;36256;42.154;23.002;2023-06-04T12:01:44;97474.47;;;23.81;63.97
36630;BME280;36256;42.154;23.002;2023-06-04T12:04:15;97492.84;;;23.91;65.11
36630;BME280;36256;42.154;23.002;2023-06-04T12:06:56;97496.88;;;24.01;65.83
36630;BME280;36256;42.154;23.002;2023-06-04T12:09:26;97496.50;;;24.16;63.05
36630;BME280;36256;42.154;23.002;2023-06-04T12:11:58;97494.78;;;24.26;62.80
36630;BME280;36256;42.154;23.002;2023-06-04T12:14:26;97473.56;;;24.16;62.06
36630;BME280;36256;42.154;23.002;2023-06-04T12:19:23;97493.75;;;24.05;62.77
36630;BME280;36256;42.154;23.002;2023-06-04T12:22:05;97501.75;;;23.88;65.91
36630;BME280;36256;42.154;23.002;2023-06-04T12:24:34;97512.50;;;23.58;67.90
36630;BME280;36256;42.154;23.002;2023-06-04T12:27:06;97506.59;;;23.50;69.71
36630;BME280;36256;42.154;23.002;2023-06-04T12:29:33;97502.13;;;23.55;70.08
36630;BME280;36256;42.154;23.002;2023-06-04T12:32:04;97509.28;;;23.67;69.43
36630;BME280;36256;42.154;23.002;2023-06-04T12:34:40;97506.84;;;23.52;71.75
36630;BME280;36256;42.154;23.002;2023-06-04T12:37:07;97507.38;;;23.51;73.83
36630;BME280;36256;42.154;23.002;2023-06-04T12:39:37;97507.09;;;23.54;71.86
36630;BME280;36256;42.154;23.002;2023-06-04T12:42:07;97499.72;;;23.34;72.65
36630;BME280;36256;42.154;23.002;2023-06-04T12:44:38;97512.03;;;23.24;73.33
36630;BME280;36256;42.154;23.002;2023-06-04T12:47:07;97510.50;;;23.23;75.52
36630;BME280;36256;42.154;23.002;2023-06-04T12:49:34;97509.38;;;23.31;75.35
36630;BME280;36256;42.154;23.002;2023-06-04T12:52:01;97507.66;;;23.47;75.16
36630;BME280;36256;42.154;23.002;2023-06-04T12:54:29;97503.44;;;23.54;74.88